sensor_id;sensor_type;location;lat;lon;timestamp;temperature;humidity
50067;DHT22;35952;52.524;13.340;2024-01-27T00:00:24;6.20;99.90
50067;DHT22;35952;52.524;13.340;2024-01-27T00:02:50;6.20;99.90
50067;DHT22;35952;52.524;13.340;2024-01-27T00:05:16;6.20;99.90
50067;DHT22;35952;52.524;13.340;2024-01-27T00:07:42;6.20;99.90
50067;DHT22;35952;52.524;13.340;2024-01-27T00:10:08;6.20;99.90
50067;DHT22;35952;52.524;13.340;2024-01-27T00:12:34;6.20;99.90
50067;DHT22;35952;52.524;13.340;2024-01-27T00:15:00;6.20;99.90
50067;DHT22;35952;52.524;13.340;2024-01-27T00:17:25;6.10;99.90
50067;DHT22;35952;52.524;13.340;2024-01-27T00:19:53;6.20;99.90
50067;DHT22;35952;52.524;13.340;2024-01-27T00:22:19;6.10;99.90
50067;DHT22;35952;52.524;13.340;2024-01-27T00:24:46;6.10;99.90
50067;DHT22;35952;52.524;13.340;2024-01-27T00:27:11;6.00;99.90
50067;DHT22;35952;52.524;13.340;2024-01-27T00:29:37;6.00;99.90
50067;DHT22;35952;52.524;13.340;2024-01-27T00:32:03;5.90;99.90
50067;DHT22;35952;52.524;13.340;2024-01-27T00:34:28;5.90;99.90
50067;DHT22;35952;52.524;13.340;2024-01-27T00:36:54;5.90;99.90
50067;DHT22;35952;52.524;13.340;2024-01-27T00:39:19;5.90;99.90
50067;DHT22;35952;52.524;13.340;2024-01-27T00:41:45;5.90;99.90
50067;DHT22;35952;52.524;13.340;2024-01-27T00:44:11;5.90;99.90
50067;DHT22;35952;52.524;13.340;2024-01-27T00:46:37;5.90;99.90
50067;DHT22;35952;52.524;13.340;2024-01-27T00:49:03;5.90;99.90
50067;DHT22;35952;52.524;13.340;2024-01-27T00:51:29;5.90;99.90
50067;DHT22;35952;52.524;13.340;2024-01-27T00:53:54;5.90;99.90
50067;DHT22;35952;52.524;13.340;2024-01-27T00:56:20;5.90;99.90
50067;DHT22;35952;52.524;13.340;2024-01-27T00:58:45;5.90;99.90
50067;DHT22;35952;52.524;13.340;2024-01-27T01:01:11;5.90;99.90
50067;DHT22;35952;52.524;13.340;2024-01-27T01:03:36;6.00;99.90
50067;DHT22;35952;52.524;13.340;2024-01-27T01:06:02;6.00;99.90
50067;DHT22;35952;52.524;13.340;2024-01-27T01:08:28;6.00;99.90
50067;DHT22;35952;52.524;13.340;2024-01-27T01:10:54;5.90;99.90
50067;DHT22;35952;52.524;13.340;2024-01-27T01:13:19;5.90;99.90
50067;DHT22;35952;52.524;13.340;2024-01-27T01:15:45;5.90;99.90
50067;DHT22;35952;52.524;13.340;2024-01-27T01:18:10;5.90;99.90
50067;DHT22;35952;52.524;13.340;2024-01-27T01:20:36;6.00;99.90
50067;DHT22;35952;52.524;13.340;2024-01-27T01:23:02;5.90;99.90
50067;DHT22;35952;52.524;13.340;2024-01-27T01:25:28;5.90;99.90
50067;DHT22;35952;52.524;13.340;2024-01-27T01:27:53;5.90;99.90
50067;DHT22;35952;52.524;13.340;2024-01-27T01:30:20;5.90;99.90
50067;DHT22;35952;52.524;13.340;2024-01-27T01:32:45;5.80;99.90
50067;DHT22;35952;52.524;13.340;2024-01-27T01:35:11;5.80;99.90
50067;DHT22;35952;52.524;13.340;2024-01-27T01:37:37;5.90;99.90
50067;DHT22;35952;52.524;13.340;2024-01-27T01:40:02;5.80;99.90
50067;DHT22;35952;52.524;13.340;2024-01-27T01:42:28;5.80;99.90
50067;DHT22;35952;52.524;13.340;2024-01-27T01:44:54;5.80;99.90
50067;DHT22;35952;52.524;13.340;2024-01-27T01:47:20;5.80;99.90
50067;DHT22;35952;52.524;13.340;2024-01-27T01:49:48;5.80;99.90
50067;DHT22;35952;52.524;13.340;2024-01-27T01:52:14;5.90;99.90
50067;DHT22;35952;52.524;13.340;2024-01-27T01:54:47;5.90;99.90
50067;DHT22;35952;52.524;13.340;2024-01-27T01:57:13;5.80;99.90
50067;DHT22;35952;52.524;13.340;2024-01-27T01:59:39;5.80;99.90
50067;DHT22;35952;52.524;13.340;2024-01-27T02:02:07;5.80;99.90
50067;DHT22;35952;52.524;13.340;2024-01-27T02:04:43;5.70;99.90
50067;DHT22;35952;52.524;13.340;2024-01-27T02:07:10;5.80;99.90
50067;DHT22;35952;52.524;13.340;2024-01-27T02:09:36;5.80;99.90
50067;DHT22;35952;52.524;13.340;2024-01-27T02:12:02;5.80;99.90
50067;DHT22;35952;52.524;13.340;2024-01-27T02:14:28;5.80;99.90
50067;DHT22;35952;52.524;13.340;2024-01-27T02:16:54;5.80;99.90
50067;DHT22;35952;52.524;13.340;2024-01-27T02:19:19;5.70;99.90
50067;DHT22;35952;52.524;13.340;2024-01-27T02:21:45;5.70;99.90
50067;DHT22;35952;52.524;13.340;2024-01-27T02:24:10;5.70;99.90
50067;DHT22;35952;52.524;13.340;2024-01-27T02:26:36;5.80;99.90
50067;DHT22;35952;52.524;13.340;2024-01-27T02:29:02;5.80;99.90
50067;DHT22;35952;52.524;13.340;2024-01-27T02:31:28;5.80;99.90
50067;DHT22;35952;52.524;13.340;2024-01-27T02:33:54;5.90;99.90
50067;DHT22;35952;52.524;13.340;2024-01-27T02:36:19;5.90;99.90
50067;DHT22;35952;52.524;13.340;2024-01-27T02:38:45;5.90;99.90
50067;DHT22;35952;52.524;13.340;2024-01-27T02:41:10;5.90;99.90
50067;DHT22;35952;52.524;13.340;2024-01-27T02:43:37;5.90;99.90
50067;DHT22;35952;52.524;13.340;2024-01-27T02:46:03;5.90;99.90
50067;DHT22;35952;52.524;13.340;2024-01-27T02:48:29;6.00;99.90
50067;DHT22;35952;52.524;13.340;2024-01-27T02:50:54;6.00;99.90
50067;DHT22;35952;52.524;13.340;2024-01-27T02:53:20;6.00;99.90
50067;DHT22;35952;52.524;13.340;2024-01-27T02:55:45;6.00;99.90
50067;DHT22;35952;52.524;13.340;2024-01-27T02:58:11;6.00;99.90
50067;DHT22;35952;52.524;13.340;2024-01-27T03:00:37;5.90;99.90
50067;DHT22;35952;52.524;13.340;2024-01-27T03:03:03;5.90;99.90
50067;DHT22;35952;52.524;13.340;2024-01-27T03:05:28;5.90;99.90
50067;DHT22;35952;52.524;13.340;2024-01-27T03:07:54;5.90;99.90
50067;DHT22;35952;52.524;13.340;2024-01-27T03:10:19;5.90;99.90
50067;DHT22;35952;52.524;13.340;2024-01-27T03:12:45;5.80;99.90
50067;DHT22;35952;52.524;13.340;2024-01-27T03:15:10;5.80;99.90
50067;DHT22;35952;52.524;13.340;2024-01-27T03:17:36;5.70;99.90
50067;DHT22;35952;52.524;13.340;2024-01-27T03:20:01;5.60;99.90
50067;DHT22;35952;52.524;13.340;2024-01-27T03:22:27;5.60;99.90
50067;DHT22;35952;52.524;13.340;2024-01-27T03:24:52;5.50;99.90
50067;DHT22;35952;52.524;13.340;2024-01-27T03:27:20;5.50;99.90
50067;DHT22;35952;52.524;13.340;2024-01-27T03:29:45;5.40;99.90
50067;DHT22;35952;52.524;13.340;2024-01-27T03:32:11;5.30;99.90
50067;DHT22;35952;52.524;13.340;2024-01-27T03:34:43;5.30;99.90
50067;DHT22;35952;52.524;13.340;2024-01-27T03:37:08;5.20;99.90
50067;DHT22;35952;52.524;13.340;2024-01-27T03:39:34;5.20;99.90
50067;DHT22;35952;52.524;13.340;2024-01-27T03:41:59;5.10;99.90
50067;DHT22;35952;52.524;13.340;2024-01-27T03:44:25;5.10;99.90
50067;DHT22;35952;52.524;13.340;2024-01-27T03:46:50;5.10;99.90
50067;DHT22;35952;52.524;13.340;2024-01-27T03:49:16;5.00;99.90
50067;DHT22;35952;52.524;13.340;2024-01-27T03:51:42;5.00;99.90
50067;DHT22;35952;52.524;13.340;2024-01-27T03:54:07;5.00;99.90
50067;DHT22;35952;52.524;13.340;2024-01-27T03:56:33;4.90;99.90
50067;DHT22;35952;52.524;13.340;2024-01-27T03:58:58;4.90;99.90
50067;DHT22;35952;52.524;13.340;2024-01-27T04:01:23;4.90;99.90
50067;DHT22;35952;52.524;13.340;2024-01-27T04:03:49;4.90;99.90
50067;DHT22;35952;52.524;13.340;2024-01-27T04:06:15;4.90;99.90
50067;DHT22;35952;52.524;13.340;2024-01-27T04:08:40;4.90;99.90
50067;DHT22;35952;52.524;13.340;2024-01-27T04:11:09;4.90;99.90
50067;DHT22;35952;52.524;13.340;2024-01-27T04:13:35;4.90;99.90
50067;DHT22;35952;52.524;13.340;2024-01-27T04:16:01;4.80;99.90
50067;DHT22;35952;52.524;13.340;2024-01-27T04:18:26;4.90;99.90
50067;DHT22;35952;52.524;13.340;2024-01-27T04:20:52;4.80;99.90
50067;DHT22;35952;52.524;13.340;2024-01-27T04:23:17;4.90;99.90
50067;DHT22;35952;52.524;13.340;2024-01-27T04:25:43;4.80;99.90
50067;DHT22;35952;52.524;13.340;2024-01-27T04:28:09;4.80;99.90
50067;DHT22;35952;52.524;13.340;2024-01-27T04:30:37;4.80;99.90
50067;DHT22;35952;52.524;13.340;2024-01-27T04:33:02;4.80;99.90
50067;DHT22;35952;52.524;13.340;2024-01-27T04:35:29;4.80;99.90
50067;DHT22;35952;52.524;13.340;2024-01-27T04:37:54;4.80;99.90
50067;DHT22;35952;52.524;13.340;2024-01-27T04:40:20;4.80;99.90
50067;DHT22;35952;52.524;13.340;2024-01-27T04:42:45;4.80;99.90
50067;DHT22;35952;52.524;13.340;2024-01-27T04:45:14;4.90;99.90
50067;DHT22;35952;52.524;13.340;2024-01-27T04:47:40;4.90;99.90
50067;DHT22;35952;52.524;13.340;2024-01-27T04:50:06;5.00;99.90
50067;DHT22;35952;52.524;13.340;2024-01-27T04:52:31;5.10;99.90
50067;DHT22;35952;52.524;13.340;2024-01-27T04:54:57;5.20;99.90
50067;DHT22;35952;52.524;13.340;2024-01-27T04:57:23;5.20;99.90
50067;DHT22;35952;52.524;13.340;2024-01-27T04:59:51;5.20;99.90
50067;DHT22;35952;52.524;13.340;2024-01-27T05:02:20;5.30;99.90
50067;DHT22;35952;52.524;13.340;2024-01-27T05:04:46;5.30;99.90
50067;DHT22;35952;52.524;13.340;2024-01-27T05:07:22;5.30;99.90
50067;DHT22;35952;52.524;13.340;2024-01-27T05:09:57;5.30;99.90
50067;DHT22;35952;52.524;13.340;2024-01-27T05:12:27;5.30;99.90
50067;DHT22;35952;52.524;13.340;2024-01-27T05:14:57;5.30;99.90
50067;DHT22;35952;52.524;13.340;2024-01-27T05:17:25;5.30;99.90
50067;DHT22;35952;52.524;13.340;2024-01-27T05:19:59;5.40;99.90
50067;DHT22;35952;52.524;13.340;2024-01-27T05:22:29;5.30;99.90
50067;DHT22;35952;52.524;13.340;2024-01-27T05:25:07;5.40;99.90
50067;DHT22;35952;52.524;13.340;2024-01-27T05:27:33;5.40;99.90
50067;DHT22;35952;52.524;13.340;2024-01-27T05:30:08;5.40;99.90
50067;DHT22;35952;52.524;13.340;2024-01-27T05:32:36;5.40;99.90
50067;DHT22;35952;52.524;13.340;2024-01-27T05:35:02;5.40;99.90
50067;DHT22;35952;52.524;13.340;2024-01-27T05:37:36;5.40;99.90
50067;DHT22;35952;52.524;13.340;2024-01-27T05:40:08;5.40;99.90
50067;DHT22;35952;52.524;13.340;2024-01-27T05:42:47;5.40;99.90
50067;DHT22;35952;52.524;13.340;2024-01-27T05:45:17;5.40;99.90
50067;DHT22;35952;52.524;13.340;2024-01-27T05:48:07;5.40;99.90
50067;DHT22;35952;52.524;13.340;2024-01-27T05:50:42;5.40;99.90
50067;DHT22;35952;52.524;13.340;2024-01-27T05:53:09;5.40;99.90
50067;DHT22;35952;52.524;13.340;2024-01-27T05:55:34;5.50;99.90
50067;DHT22;35952;52.524;13.340;2024-01-27T05:58:16;5.50;99.90
50067;DHT22;35952;52.524;13.340;2024-01-27T06:00:44;5.50;99.90
50067;DHT22;35952;52.524;13.340;2024-01-27T06:03:21;5.60;99.90
50067;DHT22;35952;52.524;13.340;2024-01-27T06:05:57;5.50;99.90
50067;DHT22;35952;52.524;13.340;2024-01-27T06:08:39;5.60;99.90
50067;DHT22;35952;52.524;13.340;2024-01-27T06:11:10;5.60;99.90
50067;DHT22;35952;52.524;13.340;2024-01-27T06:13:41;5.60;99.90
50067;DHT22;35952;52.524;13.340;2024-01-27T06:16:07;5.70;99.90
50067;DHT22;35952;52.524;13.340;2024-01-27T06:18:35;5.70;99.90
50067;DHT22;35952;52.524;13.340;2024-01-27T06:21:02;5.70;99.90
50067;DHT22;35952;52.524;13.340;2024-01-27T06:23:30;5.80;99.90
50067;DHT22;35952;52.524;13.340;2024-01-27T06:26:07;5.80;99.90
50067;DHT22;35952;52.524;13.340;2024-01-27T06:28:37;5.80;99.90
50067;DHT22;35952;52.524;13.340;2024-01-27T06:31:15;5.70;99.90
50067;DHT22;35952;52.524;13.340;2024-01-27T06:33:41;5.70;99.90
50067;DHT22;35952;52.524;13.340;2024-01-27T06:36:10;5.80;99.90
50067;DHT22;35952;52.524;13.340;2024-01-27T06:38:38;5.70;99.90
50067;DHT22;35952;52.524;13.340;2024-01-27T06:41:19;5.70;99.90
50067;DHT22;35952;52.524;13.340;2024-01-27T06:43:53;5.70;99.90
50067;DHT22;35952;52.524;13.340;2024-01-27T06:46:19;5.70;99.90
50067;DHT22;35952;52.524;13.340;2024-01-27T06:48:59;5.70;99.90
50067;DHT22;35952;52.524;13.340;2024-01-27T06:51:57;5.70;99.90
50067;DHT22;35952;52.524;13.340;2024-01-27T06:54:28;5.70;99.90
50067;DHT22;35952;52.524;13.340;2024-01-27T06:56:56;5.70;99.90
50067;DHT22;35952;52.524;13.340;2024-01-27T06:59:28;5.80;99.90
50067;DHT22;35952;52.524;13.340;2024-01-27T07:01:53;5.80;99.90
50067;DHT22;35952;52.524;13.340;2024-01-27T07:04:19;5.70;99.90
50067;DHT22;35952;52.524;13.340;2024-01-27T07:06:50;5.80;99.90
50067;DHT22;35952;52.524;13.340;2024-01-27T07:09:18;5.80;99.90
50067;DHT22;35952;52.524;13.340;2024-01-27T07:11:48;5.90;99.90
50067;DHT22;35952;52.524;13.340;2024-01-27T07:14:17;5.90;99.90
50067;DHT22;35952;52.524;13.340;2024-01-27T07:16:45;5.90;99.90
50067;DHT22;35952;52.524;13.340;2024-01-27T07:19:13;5.90;99.90
50067;DHT22;35952;52.524;13.340;2024-01-27T07:21:46;5.90;99.90
50067;DHT22;35952;52.524;13.340;2024-01-27T07:24:18;5.80;99.90
50067;DHT22;35952;52.524;13.340;2024-01-27T07:26:46;5.90;99.90
50067;DHT22;35952;52.524;13.340;2024-01-27T07:29:14;6.00;99.90
50067;DHT22;35952;52.524;13.340;2024-01-27T07:31:42;6.00;99.90
50067;DHT22;35952;52.524;13.340;2024-01-27T07:34:10;6.00;99.90
50067;DHT22;35952;52.524;13.340;2024-01-27T07:36:41;6.00;99.90
50067;DHT22;35952;52.524;13.340;2024-01-27T07:39:10;6.00;99.90
50067;DHT22;35952;52.524;13.340;2024-01-27T07:41:41;6.10;99.90
50067;DHT22;35952;52.524;13.340;2024-01-27T07:44:14;6.10;99.90
50067;DHT22;35952;52.524;13.340;2024-01-27T07:46:47;6.10;99.90
50067;DHT22;35952;52.524;13.340;2024-01-27T07:49:20;6.10;99.90
50067;DHT22;35952;52.524;13.340;2024-01-27T07:51:49;6.20;99.90
50067;DHT22;35952;52.524;13.340;2024-01-27T07:54:17;6.10;99.90
50067;DHT22;35952;52.524;13.340;2024-01-27T07:56:51;6.20;99.90
50067;DHT22;35952;52.524;13.340;2024-01-27T07:59:17;6.30;99.90
50067;DHT22;35952;52.524;13.340;2024-01-27T08:01:43;6.30;99.90
50067;DHT22;35952;52.524;13.340;2024-01-27T08:04:09;6.30;99.90
50067;DHT22;35952;52.524;13.340;2024-01-27T08:06:44;6.30;99.90
50067;DHT22;35952;52.524;13.340;2024-01-27T08:09:10;6.30;99.90
50067;DHT22;35952;52.524;13.340;2024-01-27T08:11:36;6.40;99.90
50067;DHT22;35952;52.524;13.340;2024-01-27T08:14:02;6.40;99.90
50067;DHT22;35952;52.524;13.340;2024-01-27T08:16:28;6.40;99.90
50067;DHT22;35952;52.524;13.340;2024-01-27T08:18:53;6.40;99.90
50067;DHT22;35952;52.524;13.340;2024-01-27T08:21:19;6.40;99.90
50067;DHT22;35952;52.524;13.340;2024-01-27T08:23:44;6.40;99.90
50067;DHT22;35952;52.524;13.340;2024-01-27T08:26:10;6.40;99.90
50067;DHT22;35952;52.524;13.340;2024-01-27T08:28:36;6.50;99.90
50067;DHT22;35952;52.524;13.340;2024-01-27T08:31:02;6.60;99.90
50067;DHT22;35952;52.524;13.340;2024-01-27T08:33:27;6.50;99.90
50067;DHT22;35952;52.524;13.340;2024-01-27T08:35:53;6.60;99.90
50067;DHT22;35952;52.524;13.340;2024-01-27T08:38:19;6.60;99.90
50067;DHT22;35952;52.524;13.340;2024-01-27T08:40:44;6.60;99.90
50067;DHT22;35952;52.524;13.340;2024-01-27T08:43:10;6.70;99.90
50067;DHT22;35952;52.524;13.340;2024-01-27T08:45:37;6.70;99.90
50067;DHT22;35952;52.524;13.340;2024-01-27T08:48:03;6.70;99.90
50067;DHT22;35952;52.524;13.340;2024-01-27T08:50:29;6.70;99.90
50067;DHT22;35952;52.524;13.340;2024-01-27T08:52:55;6.70;99.90
50067;DHT22;35952;52.524;13.340;2024-01-27T08:55:20;6.80;99.90
50067;DHT22;35952;52.524;13.340;2024-01-27T08:57:49;6.80;99.90
50067;DHT22;35952;52.524;13.340;2024-01-27T09:00:15;6.90;99.90
50067;DHT22;35952;52.524;13.340;2024-01-27T09:02:42;6.90;99.90
50067;DHT22;35952;52.524;13.340;2024-01-27T09:05:08;7.00;99.90
50067;DHT22;35952;52.524;13.340;2024-01-27T09:07:34;6.90;99.90
50067;DHT22;35952;52.524;13.340;2024-01-27T09:09:59;6.90;99.90
50067;DHT22;35952;52.524;13.340;2024-01-27T09:12:25;6.90;99.90
50067;DHT22;35952;52.524;13.340;2024-01-27T09:14:50;7.00;99.90
50067;DHT22;35952;52.524;13.340;2024-01-27T09:17:16;7.00;99.90
50067;DHT22;35952;52.524;13.340;2024-01-27T09:19:42;7.00;99.90
50067;DHT22;35952;52.524;13.340;2024-01-27T09:22:08;7.00;99.90
50067;DHT22;35952;52.524;13.340;2024-01-27T09:24:33;7.00;99.90
50067;DHT22;35952;52.524;13.340;2024-01-27T09:26:59;7.10;99.90
50067;DHT22;35952;52.524;13.340;2024-01-27T09:29:24;7.10;99.90
50067;DHT22;35952;52.524;13.340;2024-01-27T09:31:50;7.10;99.90
50067;DHT22;35952;52.524;13.340;2024-01-27T09:34:16;7.10;99.90
50067;DHT22;35952;52.524;13.340;2024-01-27T09:36:41;7.10;99.90
50067;DHT22;35952;52.524;13.340;2024-01-27T09:39:07;7.20;99.90
50067;DHT22;35952;52.524;13.340;2024-01-27T09:41:33;7.20;99.90
50067;DHT22;35952;52.524;13.340;2024-01-27T09:44:01;7.20;99.90
50067;DHT22;35952;52.524;13.340;2024-01-27T09:46:29;7.30;99.90
50067;DHT22;35952;52.524;13.340;2024-01-27T09:48:55;7.30;99.90
50067;DHT22;35952;52.524;13.340;2024-01-27T09:51:21;7.30;99.90
50067;DHT22;35952;52.524;13.340;2024-01-27T09:53:47;7.30;99.90
50067;DHT22;35952;52.524;13.340;2024-01-27T09:56:13;7.40;99.90
50067;DHT22;35952;52.524;13.340;2024-01-27T09:58:44;7.50;99.90
50067;DHT22;35952;52.524;13.340;2024-01-27T10:01:10;7.60;99.90
50067;DHT22;35952;52.524;13.340;2024-01-27T10:03:40;7.50;99.90
50067;DHT22;35952;52.524;13.340;2024-01-27T10:06:07;7.60;99.90
50067;DHT22;35952;52.524;13.340;2024-01-27T10:08:33;7.50;99.90
50067;DHT22;35952;52.524;13.340;2024-01-27T10:10:59;7.50;99.90
50067;DHT22;35952;52.524;13.340;2024-01-27T10:13:25;7.60;99.90
50067;DHT22;35952;52.524;13.340;2024-01-27T10:16:04;7.50;99.90
50067;DHT22;35952;52.524;13.340;2024-01-27T10:18:31;7.60;99.90
50067;DHT22;35952;52.524;13.340;2024-01-27T10:20:57;7.60;99.90
50067;DHT22;35952;52.524;13.340;2024-01-27T10:23:23;7.50;99.90
50067;DHT22;35952;52.524;13.340;2024-01-27T10:25:49;7.50;99.90
50067;DHT22;35952;52.524;13.340;2024-01-27T10:28:15;7.60;99.90
50067;DHT22;35952;52.524;13.340;2024-01-27T10:30:41;7.70;99.90
50067;DHT22;35952;52.524;13.340;2024-01-27T10:33:10;7.70;99.90
50067;DHT22;35952;52.524;13.340;2024-01-27T10:35:36;7.80;99.90
50067;DHT22;35952;52.524;13.340;2024-01-27T10:38:01;7.80;99.90
50067;DHT22;35952;52.524;13.340;2024-01-27T10:40:28;7.90;99.90
50067;DHT22;35952;52.524;13.340;2024-01-27T10:43:04;7.90;99.90
50067;DHT22;35952;52.524;13.340;2024-01-27T10:45:37;7.80;99.90
50067;DHT22;35952;52.524;13.340;2024-01-27T10:48:04;7.80;99.90
50067;DHT22;35952;52.524;13.340;2024-01-27T10:50:30;7.80;99.90
50067;DHT22;35952;52.524;13.340;2024-01-27T10:52:58;7.80;99.90
50067;DHT22;35952;52.524;13.340;2024-01-27T10:55:25;7.60;99.90
50067;DHT22;35952;52.524;13.340;2024-01-27T10:57:52;7.60;99.90
50067;DHT22;35952;52.524;13.340;2024-01-27T11:00:19;7.60;99.90
50067;DHT22;35952;52.524;13.340;2024-01-27T11:02:45;7.60;99.90
50067;DHT22;35952;52.524;13.340;2024-01-27T11:05:11;7.70;99.90
50067;DHT22;35952;52.524;13.340;2024-01-27T11:07:39;7.60;99.90
50067;DHT22;35952;52.524;13.340;2024-01-27T11:10:07;7.80;99.90
50067;DHT22;35952;52.524;13.340;2024-01-27T11:12:33;7.80;99.90
50067;DHT22;35952;52.524;13.340;2024-01-27T11:14:59;7.80;99.90
50067;DHT22;35952;52.524;13.340;2024-01-27T11:17:24;7.80;99.90
50067;DHT22;35952;52.524;13.340;2024-01-27T11:19:50;7.80;99.90
50067;DHT22;35952;52.524;13.340;2024-01-27T11:22:27;7.70;99.90
50067;DHT22;35952;52.524;13.340;2024-01-27T11:27:36;7.70;99.90
50067;DHT22;35952;52.524;13.340;2024-01-27T11:30:03;7.70;99.90
50067;DHT22;35952;52.524;13.340;2024-01-27T11:32:29;7.70;99.90
50067;DHT22;35952;52.524;13.340;2024-01-27T11:34:55;7.80;99.90
50067;DHT22;35952;52.524;13.340;2024-01-27T11:37:20;7.70;99.90
50067;DHT22;35952;52.524;13.340;2024-01-27T11:39:50;7.70;99.90
50067;DHT22;35952;52.524;13.340;2024-01-27T11:42:17;7.70;99.90
50067;DHT22;35952;52.524;13.340;2024-01-27T11:44:43;7.60;99.90
50067;DHT22;35952;52.524;13.340;2024-01-27T11:47:16;7.70;99.90
50067;DHT22;35952;52.524;13.340;2024-01-27T11:49:43;7.70;99.90
50067;DHT22;35952;52.524;13.340;2024-01-27T11:52:09;7.70;99.90
50067;DHT22;35952;52.524;13.340;2024-01-27T11:54:37;7.70;99.90
50067;DHT22;35952;52.524;13.340;2024-01-27T11:57:04;7.60;99.90
50067;DHT22;35952;52.524;13.340;2024-01-27T11:59:30;7.60;99.90
50067;DHT22;35952;52.524;13.340;2024-01-27T12:01:56;7.70;99.90
50067;DHT22;35952;52.524;13.340;2024-01-27T12:04:21;7.80;99.90
50067;DHT22;35952;52.524;13.340;2024-01-27T12:06:47;7.80;99.90
50067;DHT22;35952;52.524;13.340;2024-01-27T12:09:13;7.80;99.90
50067;DHT22;35952;52.524;13.340;2024-01-27T12:11:42;7.80;99.90
50067;DHT22;35952;52.524;13.340;2024-01-27T12:14:07;7.80;99.90
50067;DHT22;35952;52.524;13.340;2024-01-27T12:16:34;7.80;99.90
50067;DHT22;35952;52.524;13.340;2024-01-27T12:18:59;7.80;99.90
50067;DHT22;35952;52.524;13.340;2024-01-27T12:21:25;7.70;99.90
50067;DHT22;35952;52.524;13.340;2024-01-27T12:23:52;7.80;99.90
50067;DHT22;35952;52.524;13.340;2024-01-27T12:26:20;7.70;99.90
50067;DHT22;35952;52.524;13.340;2024-01-27T12:28:46;7.60;99.90
50067;DHT22;35952;52.524;13.340;2024-01-27T12:31:16;7.60;99.90
50067;DHT22;35952;52.524;13.340;2024-01-27T12:33:53;7.60;99.90
50067;DHT22;35952;52.524;13.340;2024-01-27T12:36:20;7.60;99.90
50067;DHT22;35952;52.524;13.340;2024-01-27T12:38:53;7.80;99.90
50067;DHT22;35952;52.524;13.340;2024-01-27T12:41:20;7.90;99.90
50067;DHT22;35952;52.524;13.340;2024-01-27T12:43:45;8.00;99.90
50067;DHT22;35952;52.524;13.340;2024-01-27T12:46:11;8.20;99.90
50067;DHT22;35952;52.524;13.340;2024-01-27T12:48:37;8.30;99.90
50067;DHT22;35952;52.524;13.340;2024-01-27T12:51:04;8.30;99.90
50067;DHT22;35952;52.524;13.340;2024-01-27T12:53:30;8.30;99.90
50067;DHT22;35952;52.524;13.340;2024-01-27T12:55:56;8.20;99.90
50067;DHT22;35952;52.524;13.340;2024-01-27T12:58:22;8.20;99.90
50067;DHT22;35952;52.524;13.340;2024-01-27T13:00:47;8.20;99.90
50067;DHT22;35952;52.524;13.340;2024-01-27T13:03:13;8.20;99.90
50067;DHT22;35952;52.524;13.340;2024-01-27T13:05:39;8.20;99.90
50067;DHT22;35952;52.524;13.340;2024-01-27T13:08:05;8.10;99.90
50067;DHT22;35952;52.524;13.340;2024-01-27T13:10:31;8.10;99.90
50067;DHT22;35952;52.524;13.340;2024-01-27T13:12:56;8.20;99.90
50067;DHT22;35952;52.524;13.340;2024-01-27T13:15:24;8.10;99.90
50067;DHT22;35952;52.524;13.340;2024-01-27T13:17:53;8.10;99.90
50067;DHT22;35952;52.524;13.340;2024-01-27T13:20:22;8.10;99.90
50067;DHT22;35952;52.524;13.340;2024-01-27T13:22:48;8.10;99.90
50067;DHT22;35952;52.524;13.340;2024-01-27T13:25:14;7.90;99.90
50067;DHT22;35952;52.524;13.340;2024-01-27T13:27:40;7.90;99.90
50067;DHT22;35952;52.524;13.340;2024-01-27T13:30:05;7.90;99.90
50067;DHT22;35952;52.524;13.340;2024-01-27T13:32:31;7.90;99.90
50067;DHT22;35952;52.524;13.340;2024-01-27T13:34:57;7.90;99.90
50067;DHT22;35952;52.524;13.340;2024-01-27T13:37:23;7.90;99.90
50067;DHT22;35952;52.524;13.340;2024-01-27T13:39:49;7.80;99.90
50067;DHT22;35952;52.524;13.340;2024-01-27T13:42:15;7.80;99.90
50067;DHT22;35952;52.524;13.340;2024-01-27T13:44:40;7.70;99.90
50067;DHT22;35952;52.524;13.340;2024-01-27T13:47:07;7.70;99.90
50067;DHT22;35952;52.524;13.340;2024-01-27T13:49:34;7.60;99.90
50067;DHT22;35952;52.524;13.340;2024-01-27T13:52:00;7.60;99.90
50067;DHT22;35952;52.524;13.340;2024-01-27T13:54:26;7.60;99.90
50067;DHT22;35952;52.524;13.340;2024-01-27T13:56:51;7.60;99.90
50067;DHT22;35952;52.524;13.340;2024-01-27T13:59:17;7.60;99.90
50067;DHT22;35952;52.524;13.340;2024-01-27T14:01:42;7.60;99.90
50067;DHT22;35952;52.524;13.340;2024-01-27T14:04:08;7.60;99.90
50067;DHT22;35952;52.524;13.340;2024-01-27T14:06:34;7.60;99.90
50067;DHT22;35952;52.524;13.340;2024-01-27T14:09:00;7.70;99.90
50067;DHT22;35952;52.524;13.340;2024-01-27T14:11:28;7.80;99.90
50067;DHT22;35952;52.524;13.340;2024-01-27T14:13:53;7.80;99.90
50067;DHT22;35952;52.524;13.340;2024-01-27T14:16:19;7.90;99.90
50067;DHT22;35952;52.524;13.340;2024-01-27T14:18:45;7.90;99.90
50067;DHT22;35952;52.524;13.340;2024-01-27T14:21:11;8.00;99.90
50067;DHT22;35952;52.524;13.340;2024-01-27T14:23:37;8.10;99.90
50067;DHT22;35952;52.524;13.340;2024-01-27T14:26:03;8.10;99.90
50067;DHT22;35952;52.524;13.340;2024-01-27T14:28:29;8.00;99.90
50067;DHT22;35952;52.524;13.340;2024-01-27T14:30:55;8.00;99.90
50067;DHT22;35952;52.524;13.340;2024-01-27T14:33:20;8.00;99.90
50067;DHT22;35952;52.524;13.340;2024-01-27T14:35:47;8.00;99.90
50067;DHT22;35952;52.524;13.340;2024-01-27T14:38:13;8.00;99.90
50067;DHT22;35952;52.524;13.340;2024-01-27T14:40:39;8.00;99.90
50067;DHT22;35952;52.524;13.340;2024-01-27T14:43:05;7.80;99.90
50067;DHT22;35952;52.524;13.340;2024-01-27T14:45:35;7.90;99.90
50067;DHT22;35952;52.524;13.340;2024-01-27T14:48:01;7.90;99.90
50067;DHT22;35952;52.524;13.340;2024-01-27T14:50:27;7.80;99.90
50067;DHT22;35952;52.524;13.340;2024-01-27T14:52:53;7.90;99.90
50067;DHT22;35952;52.524;13.340;2024-01-27T14:55:18;7.90;99.90
50067;DHT22;35952;52.524;13.340;2024-01-27T14:57:44;7.80;99.90
50067;DHT22;35952;52.524;13.340;2024-01-27T15:00:10;7.90;99.90
50067;DHT22;35952;52.524;13.340;2024-01-27T15:02:36;7.90;99.90
50067;DHT22;35952;52.524;13.340;2024-01-27T15:05:01;7.90;99.90
50067;DHT22;35952;52.524;13.340;2024-01-27T15:07:27;7.90;99.90
50067;DHT22;35952;52.524;13.340;2024-01-27T15:09:55;7.80;99.90
50067;DHT22;35952;52.524;13.340;2024-01-27T15:12:21;7.80;99.90
50067;DHT22;35952;52.524;13.340;2024-01-27T15:14:49;7.80;99.90
50067;DHT22;35952;52.524;13.340;2024-01-27T15:17:15;7.60;99.90
50067;DHT22;35952;52.524;13.340;2024-01-27T15:19:41;7.60;99.90
50067;DHT22;35952;52.524;13.340;2024-01-27T15:22:06;7.50;99.90
50067;DHT22;35952;52.524;13.340;2024-01-27T15:24:32;7.50;99.90
50067;DHT22;35952;52.524;13.340;2024-01-27T15:27:00;7.50;99.90
50067;DHT22;35952;52.524;13.340;2024-01-27T15:29:26;7.40;99.90
50067;DHT22;35952;52.524;13.340;2024-01-27T15:31:51;7.40;99.90